sensor_id;sensor_type;location;lat;lon;timestamp;pressure;altitude;pressure_sealevel;temperature;humidity
9189;BME280;34313;50.780;6.084;2023-07-31T00:00:08;99187.44;;;16.25;100.00
9189;BME280;34313;50.780;6.084;2023-07-31T00:02:36;99180.03;;;16.19;100.00
9189;BME280;34313;50.780;6.084;2023-07-31T00:05:02;99188.56;;;16.22;100.00
9189;BME280;34313;50.780;6.084;2023-07-31T00:07:27;99185.91;;;16.22;100.00
9189;BME280;34313;50.780;6.084;2023-07-31T00:09:52;99181.84;;;16.18;100.00
9189;BME280;34313;50.780;6.084;2023-07-31T00:12:19;99177.38;;;16.19;100.00
9189;BME280;34313;50.780;6.084;2023-07-31T00:14:44;99182.28;;;16.23;100.00
9189;BME280;34313;50.780;6.084;2023-07-31T00:17:10;99193.06;;;16.22;100.00
9189;BME280;34313;50.780;6.084;2023-07-31T00:19:36;99190.66;;;16.19;100.00
9189;BME280;34313;50.780;6.084;2023-07-31T00:22:01;99181.13;;;16.16;100.00
9189;BME280;34313;50.780;6.084;2023-07-31T00:24:26;99174.41;;;16.12;100.00
9189;BME280;34313;50.780;6.084;2023-07-31T00:26:52;99189.97;;;16.17;100.00
9189;BME280;34313;50.780;6.084;2023-07-31T00:29:17;99179.13;;;16.09;100.00
9189;BME280;34313;50.780;6.084;2023-07-31T00:31:42;99178.75;;;16.13;100.00
9189;BME280;34313;50.780;6.084;2023-07-31T00:34:07;99178.69;;;16.03;100.00
9189;BME280;34313;50.780;6.084;2023-07-31T00:36:33;99184.00;;;16.03;100.00
9189;BME280;34313;50.780;6.084;2023-07-31T00:38:58;99182.19;;;16.04;100.00
9189;BME280;34313;50.780;6.084;2023-07-31T00:41:23;99172.34;;;15.95;100.00
9189;BME280;34313;50.780;6.084;2023-07-31T00:43:48;99184.13;;;16.02;100.00
9189;BME280;34313;50.780;6.084;2023-07-31T00:46:14;99190.03;;;16.05;100.00
9189;BME280;34313;50.780;6.084;2023-07-31T00:48:39;99173.94;;;16.07;100.00
9189;BME280;34313;50.780;6.084;2023-07-31T00:51:06;99170.66;;;16.15;100.00
9189;BME280;34313;50.780;6.084;2023-07-31T00:53:32;99171.72;;;16.12;100.00
9189;BME280;34313;50.780;6.084;2023-07-31T00:55:58;99172.63;;;16.22;100.00
9189;BME280;34313;50.780;6.084;2023-07-31T00:58:24;99165.31;;;16.15;100.00
9189;BME280;34313;50.780;6.084;2023-07-31T01:00:49;99165.47;;;16.23;100.00
9189;BME280;34313;50.780;6.084;2023-07-31T01:03:15;99165.16;;;16.16;100.00
9189;BME280;34313;50.780;6.084;2023-07-31T01:06:04;99156.16;;;16.29;100.00
9189;BME280;34313;50.780;6.084;2023-07-31T01:08:42;99160.09;;;16.34;100.00
9189;BME280;34313;50.780;6.084;2023-07-31T01:11:28;99153.06;;;16.33;100.00
9189;BME280;34313;50.780;6.084;2023-07-31T01:13:55;99152.94;;;16.35;100.00
9189;BME280;34313;50.780;6.084;2023-07-31T01:16:20;99148.00;;;16.30;100.00
9189;BME280;34313;50.780;6.084;2023-07-31T01:18:45;99150.53;;;16.32;100.00
9189;BME280;34313;50.780;6.084;2023-07-31T01:27:05;99140.75;;;16.32;100.00
9189;BME280;34313;50.780;6.084;2023-07-31T01:32:00;99139.38;;;16.38;100.00
9189;BME280;34313;50.780;6.084;2023-07-31T01:34:27;99129.56;;;16.38;100.00
9189;BME280;34313;50.780;6.084;2023-07-31T01:36:53;99143.44;;;16.42;100.00
9189;BME280;34313;50.780;6.084;2023-07-31T01:39:20;99142.19;;;16.46;100.00
9189;BME280;34313;50.780;6.084;2023-07-31T01:41:45;99134.50;;;16.43;100.00
9189;BME280;34313;50.780;6.084;2023-07-31T01:44:11;99130.13;;;16.42;100.00
9189;BME280;34313;50.780;6.084;2023-07-31T01:46:36;99135.63;;;16.50;100.00
9189;BME280;34313;50.780;6.084;2023-07-31T01:49:01;99139.94;;;16.51;100.00
9189;BME280;34313;50.780;6.084;2023-07-31T01:51:26;99133.22;;;16.47;100.00
9189;BME280;34313;50.780;6.084;2023-07-31T01:53:52;99143.03;;;16.56;100.00
9189;BME280;34313;50.780;6.084;2023-07-31T01:56:17;99130.44;;;16.58;100.00
9189;BME280;34313;50.780;6.084;2023-07-31T01:58:42;99117.00;;;16.60;100.00
9189;BME280;34313;50.780;6.084;2023-07-31T02:01:07;99121.66;;;16.68;100.00
9189;BME280;34313;50.780;6.084;2023-07-31T02:03:33;99122.06;;;16.63;100.00
9189;BME280;34313;50.780;6.084;2023-07-31T02:05:58;99116.75;;;16.63;100.00
9189;BME280;34313;50.780;6.084;2023-07-31T02:08:23;99119.53;;;16.61;100.00
9189;BME280;34313;50.780;6.084;2023-07-31T02:10:49;99106.94;;;16.63;100.00
9189;BME280;34313;50.780;6.084;2023-07-31T02:13:14;99101.47;;;16.65;100.00
9189;BME280;34313;50.780;6.084;2023-07-31T02:15:39;99105.44;;;16.71;100.00
9189;BME280;34313;50.780;6.084;2023-07-31T02:18:04;99092.25;;;16.69;100.00
9189;BME280;34313;50.780;6.084;2023-07-31T02:20:33;99100.38;;;16.68;100.00
9189;BME280;34313;50.780;6.084;2023-07-31T02:22:59;99091.13;;;16.72;100.00
9189;BME280;34313;50.780;6.084;2023-07-31T02:25:24;99099.94;;;16.72;100.00
9189;BME280;34313;50.780;6.084;2023-07-31T02:27:49;99095.47;;;16.73;100.00
9189;BME280;34313;50.780;6.084;2023-07-31T02:30:14;99082.56;;;16.68;100.00
9189;BME280;34313;50.780;6.084;2023-07-31T02:32:40;99094.22;;;16.77;100.00
9189;BME280;34313;50.780;6.084;2023-07-31T02:35:05;99080.22;;;16.75;100.00
9189;BME280;34313;50.780;6.084;2023-07-31T02:37:31;99092.69;;;16.74;100.00
9189;BME280;34313;50.780;6.084;2023-07-31T02:39:56;99087.63;;;16.81;100.00
9189;BME280;34313;50.780;6.084;2023-07-31T02:42:21;99089.84;;;16.76;100.00
9189;BME280;34313;50.780;6.084;2023-07-31T02:44:46;99094.06;;;16.78;100.00
9189;BME280;34313;50.780;6.084;2023-07-31T02:47:12;99081.88;;;16.76;100.00
9189;BME280;34313;50.780;6.084;2023-07-31T02:49:37;99075.72;;;16.75;100.00
9189;BME280;34313;50.780;6.084;2023-07-31T02:52:02;99084.53;;;16.76;100.00
9189;BME280;34313;50.780;6.084;2023-07-31T02:54:28;99075.44;;;16.78;100.00
9189;BME280;34313;50.780;6.084;2023-07-31T02:56:53;99078.66;;;16.82;100.00
9189;BME280;34313;50.780;6.084;2023-07-31T02:59:20;99082.75;;;16.86;100.00
9189;BME280;34313;50.780;6.084;2023-07-31T03:01:45;99068.03;;;16.82;100.00
9189;BME280;34313;50.780;6.084;2023-07-31T03:04:10;99073.25;;;16.84;100.00
9189;BME280;34313;50.780;6.084;2023-07-31T03:06:35;99075.03;;;16.83;100.00
9189;BME280;34313;50.780;6.084;2023-07-31T03:09:01;99071.28;;;16.86;100.00
9189;BME280;34313;50.780;6.084;2023-07-31T03:11:26;99069.00;;;16.81;100.00
9189;BME280;34313;50.780;6.084;2023-07-31T03:13:51;99065.25;;;16.84;100.00
9189;BME280;34313;50.780;6.084;2023-07-31T03:16:17;99061.47;;;16.86;100.00
9189;BME280;34313;50.780;6.084;2023-07-31T03:18:42;99067.34;;;16.90;100.00
9189;BME280;34313;50.780;6.084;2023-07-31T03:21:07;99065.22;;;16.93;100.00
9189;BME280;34313;50.780;6.084;2023-07-31T03:23:33;99060.22;;;16.90;100.00
9189;BME280;34313;50.780;6.084;2023-07-31T03:25:59;99050.41;;;16.91;100.00
9189;BME280;34313;50.780;6.084;2023-07-31T03:28:25;99053.31;;;16.78;100.00
9189;BME280;34313;50.780;6.084;2023-07-31T03:30:51;99048.69;;;16.80;100.00
9189;BME280;34313;50.780;6.084;2023-07-31T03:33:16;99066.66;;;16.88;100.00
9189;BME280;34313;50.780;6.084;2023-07-31T03:35:42;99044.78;;;16.84;100.00
9189;BME280;34313;50.780;6.084;2023-07-31T03:38:07;99049.28;;;16.84;100.00
9189;BME280;34313;50.780;6.084;2023-07-31T03:40:32;99046.50;;;16.85;100.00
9189;BME280;34313;50.780;6.084;2023-07-31T03:42:58;99044.66;;;16.86;100.00
9189;BME280;34313;50.780;6.084;2023-07-31T03:45:23;99045.91;;;16.81;100.00
9189;BME280;34313;50.780;6.084;2023-07-31T03:47:48;99042.81;;;16.86;100.00
9189;BME280;34313;50.780;6.084;2023-07-31T03:50:14;99044.91;;;16.82;100.00
9189;BME280;34313;50.780;6.084;2023-07-31T03:52:39;99038.88;;;16.80;100.00
9189;BME280;34313;50.780;6.084;2023-07-31T03:55:05;99034.97;;;16.85;100.00
9189;BME280;34313;50.780;6.084;2023-07-31T03:57:30;99026.72;;;16.78;100.00
9189;BME280;34313;50.780;6.084;2023-07-31T03:59:57;99023.75;;;16.81;100.00
9189;BME280;34313;50.780;6.084;2023-07-31T04:02:23;99029.06;;;16.81;100.00
9189;BME280;34313;50.780;6.084;2023-07-31T04:04:48;99033.00;;;16.77;100.00
9189;BME280;34313;50.780;6.084;2023-07-31T04:07:13;99030.47;;;16.75;100.00
9189;BME280;34313;50.780;6.084;2023-07-31T04:09:39;99020.53;;;16.77;100.00
9189;BME280;34313;50.780;6.084;2023-07-31T04:12:04;99032.72;;;16.80;100.00
9189;BME280;34313;50.780;6.084;2023-07-31T04:14:29;99021.66;;;16.75;100.00
9189;BME280;34313;50.780;6.084;2023-07-31T04:16:55;99027.69;;;16.77;100.00
9189;BME280;34313;50.780;6.084;2023-07-31T04:19:20;99013.69;;;16.75;100.00
9189;BME280;34313;50.780;6.084;2023-07-31T04:21:45;99027.00;;;16.85;100.00
9189;BME280;34313;50.780;6.084;2023-07-31T04:24:11;99023.91;;;16.89;100.00
9189;BME280;34313;50.780;6.084;2023-07-31T04:26:36;99011.03;;;16.85;100.00
9189;BME280;34313;50.780;6.084;2023-07-31T04:29:01;99020.56;;;16.87;100.00
9189;BME280;34313;50.780;6.084;2023-07-31T04:31:26;99021.25;;;16.89;100.00
9189;BME280;34313;50.780;6.084;2023-07-31T04:33:52;99013.56;;;16.86;100.00
9189;BME280;34313;50.780;6.084;2023-07-31T04:36:20;99008.66;;;16.91;100.00
9189;BME280;34313;50.780;6.084;2023-07-31T04:38:54;99008.91;;;16.88;100.00
9189;BME280;34313;50.780;6.084;2023-07-31T04:41:20;99007.53;;;16.94;100.00
9189;BME280;34313;50.780;6.084;2023-07-31T04:43:45;98996.88;;;16.94;100.00
9189;BME280;34313;50.780;6.084;2023-07-31T04:46:10;98994.75;;;17.07;100.00
9189;BME280;34313;50.780;6.084;2023-07-31T04:48:35;98986.34;;;17.12;100.00
9189;BME280;34313;50.780;6.084;2023-07-31T04:51:01;98990.31;;;17.35;100.00
9189;BME280;34313;50.780;6.084;2023-07-31T04:53:26;98995.66;;;17.35;100.00
9189;BME280;34313;50.780;6.084;2023-07-31T04:55:51;98996.66;;;17.34;100.00
9189;BME280;34313;50.780;6.084;2023-07-31T04:58:17;98988.06;;;17.41;100.00
9189;BME280;34313;50.780;6.084;2023-07-31T05:00:42;98981.75;;;17.42;100.00
9189;BME280;34313;50.780;6.084;2023-07-31T05:03:07;98987.09;;;17.42;100.00
9189;BME280;34313;50.780;6.084;2023-07-31T05:05:32;98993.53;;;17.39;100.00
9189;BME280;34313;50.780;6.084;2023-07-31T05:07:58;98983.34;;;17.34;100.00
9189;BME280;34313;50.780;6.084;2023-07-31T05:10:23;98986.56;;;17.28;100.00
9189;BME280;34313;50.780;6.084;2023-07-31T05:12:48;98976.63;;;17.30;100.00
9189;BME280;34313;50.780;6.084;2023-07-31T05:15:14;98978.56;;;17.28;100.00
9189;BME280;34313;50.780;6.084;2023-07-31T05:17:39;98969.06;;;17.26;100.00
9189;BME280;34313;50.780;6.084;2023-07-31T05:20:05;98973.56;;;17.25;100.00
9189;BME280;34313;50.780;6.084;2023-07-31T05:22:30;98965.59;;;17.15;100.00
9189;BME280;34313;50.780;6.084;2023-07-31T05:24:56;98973.03;;;17.12;100.00
9189;BME280;34313;50.780;6.084;2023-07-31T05:27:21;98958.56;;;17.14;100.00
9189;BME280;34313;50.780;6.084;2023-07-31T05:29:46;98977.94;;;17.07;100.00
9189;BME280;34313;50.780;6.084;2023-07-31T05:32:12;98971.09;;;17.04;100.00
9189;BME280;34313;50.780;6.084;2023-07-31T05:34:37;98967.47;;;16.95;100.00
9189;BME280;34313;50.780;6.084;2023-07-31T05:37:02;98965.09;;;16.92;100.00
9189;BME280;34313;50.780;6.084;2023-07-31T05:39:28;98958.47;;;16.96;100.00
9189;BME280;34313;50.780;6.084;2023-07-31T05:41:53;98958.19;;;16.99;100.00
9189;BME280;34313;50.780;6.084;2023-07-31T05:44:18;98945.50;;;16.84;100.00
9189;BME280;34313;50.780;6.084;2023-07-31T05:46:44;98942.56;;;16.87;100.00
9189;BME280;34313;50.780;6.084;2023-07-31T05:49:09;98941.81;;;16.94;100.00
9189;BME280;34313;50.780;6.084;2023-07-31T05:51:34;98940.00;;;16.95;100.00
9189;BME280;34313;50.780;6.084;2023-07-31T05:54:00;98938.28;;;17.04;100.00
9189;BME280;34313;50.780;6.084;2023-07-31T05:56:25;98937.72;;;17.10;100.00
9189;BME280;34313;50.780;6.084;2023-07-31T05:58:52;98934.31;;;17.17;100.00
9189;BME280;34313;50.780;6.084;2023-07-31T06:01:17;98931.34;;;17.30;100.00
9189;BME280;34313;50.780;6.084;2023-07-31T06:03:43;98923.56;;;17.47;100.00
9189;BME280;34313;50.780;6.084;2023-07-31T06:06:08;98927.47;;;17.70;100.00
9189;BME280;34313;50.780;6.084;2023-07-31T06:08:33;98926.22;;;18.02;100.00
9189;BME280;34313;50.780;6.084;2023-07-31T06:10:59;98919.03;;;18.21;100.00
9189;BME280;34313;50.780;6.084;2023-07-31T06:13:24;98914.66;;;18.56;100.00
9189;BME280;34313;50.780;6.084;2023-07-31T06:15:49;98927.94;;;18.83;100.00
9189;BME280;34313;50.780;6.084;2023-07-31T06:18:15;98923.09;;;19.13;100.00
9189;BME280;34313;50.780;6.084;2023-07-31T06:20:41;98923.38;;;19.36;100.00
9189;BME280;34313;50.780;6.084;2023-07-31T06:23:06;98921.94;;;19.50;100.00
9189;BME280;34313;50.780;6.084;2023-07-31T06:25:31;98926.97;;;19.53;100.00
9189;BME280;34313;50.780;6.084;2023-07-31T06:27:57;98925.25;;;19.44;100.00
9189;BME280;34313;50.780;6.084;2023-07-31T06:30:22;98925.38;;;19.34;100.00
9189;BME280;34313;50.780;6.084;2023-07-31T06:32:47;98931.47;;;19.18;100.00
9189;BME280;34313;50.780;6.084;2023-07-31T06:35:13;98936.56;;;19.03;100.00
9189;BME280;34313;50.780;6.084;2023-07-31T06:37:38;98928.59;;;18.85;100.00
9189;BME280;34313;50.780;6.084;2023-07-31T06:40:06;98923.66;;;18.73;100.00
9189;BME280;34313;50.780;6.084;2023-07-31T06:42:34;98921.91;;;18.63;100.00
9189;BME280;34313;50.780;6.084;2023-07-31T06:45:00;98923.13;;;18.51;100.00
9189;BME280;34313;50.780;6.084;2023-07-31T06:47:25;98918.69;;;18.78;100.00
9189;BME280;34313;50.780;6.084;2023-07-31T06:49:51;98912.34;;;18.79;100.00
9189;BME280;34313;50.780;6.084;2023-07-31T06:52:16;98913.88;;;18.81;100.00
9189;BME280;34313;50.780;6.084;2023-07-31T06:54:42;98920.59;;;18.67;100.00
9189;BME280;34313;50.780;6.084;2023-07-31T06:57:07;98934.56;;;18.61;100.00
9189;BME280;34313;50.780;6.084;2023-07-31T06:59:33;98933.97;;;18.49;100.00
9189;BME280;34313;50.780;6.084;2023-07-31T07:01:58;98933.72;;;18.61;100.00
9189;BME280;34313;50.780;6.084;2023-07-31T07:04:23;98950.28;;;18.64;100.00
9189;BME280;34313;50.780;6.084;2023-07-31T07:06:49;98942.72;;;18.60;100.00
9189;BME280;34313;50.780;6.084;2023-07-31T07:09:14;98943.34;;;18.54;100.00
9189;BME280;34313;50.780;6.084;2023-07-31T07:11:39;98943.41;;;18.44;100.00
9189;BME280;34313;50.780;6.084;2023-07-31T07:14:05;98933.69;;;18.35;100.00
9189;BME280;34313;50.780;6.084;2023-07-31T07:16:30;98939.63;;;18.10;100.00
9189;BME280;34313;50.780;6.084;2023-07-31T07:18:55;98928.50;;;18.15;100.00
9189;BME280;34313;50.780;6.084;2023-07-31T07:21:20;98918.22;;;18.20;100.00
9189;BME280;34313;50.780;6.084;2023-07-31T07:23:46;98928.00;;;18.56;100.00
9189;BME280;34313;50.780;6.084;2023-07-31T07:26:11;98914.56;;;18.83;100.00
9189;BME280;34313;50.780;6.084;2023-07-31T07:28:37;98900.72;;;18.88;100.00
9189;BME280;34313;50.780;6.084;2023-07-31T07:31:02;98916.66;;;18.98;100.00
9189;BME280;34313;50.780;6.084;2023-07-31T07:33:28;98908.66;;;18.98;100.00
9189;BME280;34313;50.780;6.084;2023-07-31T07:36:02;98901.25;;;18.65;100.00
9189;BME280;34313;50.780;6.084;2023-07-31T07:38:27;98905.47;;;18.50;100.00
9189;BME280;34313;50.780;6.084;2023-07-31T07:40:53;98909.63;;;18.52;100.00
9189;BME280;34313;50.780;6.084;2023-07-31T07:43:19;98911.56;;;18.60;100.00
9189;BME280;34313;50.780;6.084;2023-07-31T07:45:44;98909.91;;;18.85;100.00
9189;BME280;34313;50.780;6.084;2023-07-31T07:48:09;98903.69;;;19.03;100.00
9189;BME280;34313;50.780;6.084;2023-07-31T07:50:35;98901.44;;;19.24;100.00
9189;BME280;34313;50.780;6.084;2023-07-31T07:53:00;98904.22;;;19.49;100.00
9189;BME280;34313;50.780;6.084;2023-07-31T07:55:25;98890.69;;;20.01;100.00
9189;BME280;34313;50.780;6.084;2023-07-31T07:57:51;98898.56;;;20.52;96.88
9189;BME280;34313;50.780;6.084;2023-07-31T08:00:16;98898.44;;;20.62;96.14
9189;BME280;34313;50.780;6.084;2023-07-31T08:02:42;98903.44;;;20.90;94.64
9189;BME280;34313;50.780;6.084;2023-07-31T08:05:08;98890.69;;;20.92;92.71
9189;BME280;34313;50.780;6.084;2023-07-31T08:07:33;98890.41;;;21.26;90.36
9189;BME280;34313;50.780;6.084;2023-07-31T08:09:58;98885.41;;;21.71;86.40
9189;BME280;34313;50.780;6.084;2023-07-31T08:12:24;98889.38;;;21.36;87.27
9189;BME280;34313;50.780;6.084;2023-07-31T08:14:49;98880.63;;;21.02;88.16
9189;BME280;34313;50.780;6.084;2023-07-31T08:17:14;98872.59;;;20.94;89.16
9189;BME280;34313;50.780;6.084;2023-07-31T08:19:39;98869.44;;;20.82;90.06
9189;BME280;34313;50.780;6.084;2023-07-31T08:22:05;98873.97;;;20.73;90.33
9189;BME280;34313;50.780;6.084;2023-07-31T08:24:30;98880.00;;;20.51;91.20
9189;BME280;34313;50.780;6.084;2023-07-31T08:26:55;98887.38;;;20.32;91.89
9189;BME280;34313;50.780;6.084;2023-07-31T08:29:21;98882.66;;;19.93;93.10
9189;BME280;34313;50.780;6.084;2023-07-31T08:31:46;98890.19;;;19.98;93.33
9189;BME280;34313;50.780;6.084;2023-07-31T08:34:11;98886.00;;;20.03;93.80
9189;BME280;34313;50.780;6.084;2023-07-31T08:36:37;98881.00;;;20.17;93.99
9189;BME280;34313;50.780;6.084;2023-07-31T08:39:02;98883.00;;;20.07;93.28
9189;BME280;34313;50.780;6.084;2023-07-31T08:41:28;98880.81;;;20.02;92.83
9189;BME280;34313;50.780;6.084;2023-07-31T08:43:55;98877.69;;;20.23;93.43
9189;BME280;34313;50.780;6.084;2023-07-31T08:46:20;98882.53;;;20.36;91.85
9189;BME280;34313;50.780;6.084;2023-07-31T08:48:46;98877.16;;;20.77;90.20
9189;BME280;34313;50.780;6.084;2023-07-31T08:51:14;98873.91;;;21.14;88.60
9189;BME280;34313;50.780;6.084;2023-07-31T08:53:40;98880.00;;;21.48;84.85
9189;BME280;34313;50.780;6.084;2023-07-31T08:56:05;98876.41;;;21.56;84.16
9189;BME280;34313;50.780;6.084;2023-07-31T08:58:32;98884.56;;;21.70;83.98
9189;BME280;34313;50.780;6.084;2023-07-31T09:01:03;98885.75;;;21.91;82.59
9189;BME280;34313;50.780;6.084;2023-07-31T09:03:33;98888.94;;;21.95;82.62
9189;BME280;34313;50.780;6.084;2023-07-31T09:05:59;98885.91;;;21.98;82.00
9189;BME280;34313;50.780;6.084;2023-07-31T09:08:26;98894.53;;;21.85;82.21
9189;BME280;34313;50.780;6.084;2023-07-31T09:10:59;98893.28;;;21.73;81.93
9189;BME280;34313;50.780;6.084;2023-07-31T09:13:27;98890.09;;;22.00;82.04
9189;BME280;34313;50.780;6.084;2023-07-31T09:15:53;98888.22;;;22.24;80.40
9189;BME280;34313;50.780;6.084;2023-07-31T09:18:18;98877.09;;;22.73;78.98
9189;BME280;34313;50.780;6.084;2023-07-31T09:21:03;98877.00;;;22.96;75.56
9189;BME280;34313;50.780;6.084;2023-07-31T09:23:44;98881.69;;;23.32;73.42
9189;BME280;34313;50.780;6.084;2023-07-31T09:26:10;98877.75;;;23.35;71.15
9189;BME280;34313;50.780;6.084;2023-07-31T09:28:35;98875.09;;;23.20;69.22
9189;BME280;34313;50.780;6.084;2023-07-31T09:31:01;98878.75;;;22.74;69.88
9189;BME280;34313;50.780;6.084;2023-07-31T09:33:26;98879.41;;;22.76;69.86
9189;BME280;34313;50.780;6.084;2023-07-31T09:35:52;98877.84;;;22.82;69.23
9189;BME280;34313;50.780;6.084;2023-07-31T09:38:17;98878.59;;;22.91;69.40
9189;BME280;34313;50.780;6.084;2023-07-31T09:40:45;98876.56;;;22.40;71.31
9189;BME280;34313;50.780;6.084;2023-07-31T09:43:17;98878.13;;;22.87;70.76
9189;BME280;34313;50.780;6.084;2023-07-31T09:45:44;98876.81;;;22.83;71.42
9189;BME280;34313;50.780;6.084;2023-07-31T09:48:14;98887.66;;;22.75;73.17
9189;BME280;34313;50.780;6.084;2023-07-31T09:50:48;98891.84;;;22.39;74.75
9189;BME280;34313;50.780;6.084;2023-07-31T09:53:14;98873.16;;;22.61;74.48
9189;BME280;34313;50.780;6.084;2023-07-31T09:55:40;98889.47;;;22.59;75.03
9189;BME280;34313;50.780;6.084;2023-07-31T09:58:08;98882.53;;;22.65;75.51
9189;BME280;34313;50.780;6.084;2023-07-31T10:00:35;98882.72;;;22.63;75.87
9189;BME280;34313;50.780;6.084;2023-07-31T10:03:04;98875.59;;;22.71;75.37
9189;BME280;34313;50.780;6.084;2023-07-31T10:05:34;98882.56;;;22.80;75.40
9189;BME280;34313;50.780;6.084;2023-07-31T10:08:00;98871.88;;;22.57;74.93
9189;BME280;34313;50.780;6.084;2023-07-31T10:10:26;98869.25;;;22.49;76.20
9189;BME280;34313;50.780;6.084;2023-07-31T10:12:53;98879.59;;;22.37;77.43
9189;BME280;34313;50.780;6.084;2023-07-31T10:15:19;98876.88;;;21.90;79.80
9189;BME280;34313;50.780;6.084;2023-07-31T10:17:48;98879.81;;;21.49;82.14
9189;BME280;34313;50.780;6.084;2023-07-31T10:20:15;98875.34;;;21.25;83.65
9189;BME280;34313;50.780;6.084;2023-07-31T10:22:44;98882.44;;;21.02;85.84
9189;BME280;34313;50.780;6.084;2023-07-31T10:25:15;98888.22;;;20.66;87.58
9189;BME280;34313;50.780;6.084;2023-07-31T10:27:41;98887.72;;;20.37;90.81
9189;BME280;34313;50.780;6.084;2023-07-31T10:30:10;98888.00;;;20.01;94.19
9189;BME280;34313;50.780;6.084;2023-07-31T10:32:38;98881.63;;;19.86;95.22
9189;BME280;34313;50.780;6.084;2023-07-31T10:35:05;98882.56;;;19.69;96.44
9189;BME280;34313;50.780;6.084;2023-07-31T10:37:37;98883.06;;;19.64;97.24
9189;BME280;34313;50.780;6.084;2023-07-31T10:40:11;98881.53;;;19.61;98.39
9189;BME280;34313;50.780;6.084;2023-07-31T10:42:47;98879.22;;;19.58;99.81
9189;BME280;34313;50.780;6.084;2023-07-31T10:45:14;98871.19;;;19.67;98.76
9189;BME280;34313;50.780;6.084;2023-07-31T10:47:48;98871.81;;;19.52;100.00
9189;BME280;34313;50.780;6.084;2023-07-31T10:50:21;98861.91;;;19.87;98.60
9189;BME280;34313;50.780;6.084;2023-07-31T10:52:53;98864.63;;;20.69;94.21
9189;BME280;34313;50.780;6.084;2023-07-31T10:55:41;98861.16;;;21.08;91.06
9189;BME280;34313;50.780;6.084;2023-07-31T10:58:10;98854.00;;;21.48;88.36
9189;BME280;34313;50.780;6.084;2023-07-31T11:00:38;98850.81;;;21.53;86.68
9189;BME280;34313;50.780;6.084;2023-07-31T11:03:17;98849.50;;;21.41;85.63
9189;BME280;34313;50.780;6.084;2023-07-31T11:05:45;98853.50;;;21.37;87.03
9189;BME280;34313;50.780;6.084;2023-07-31T11:08:14;98856.63;;;21.17;87.01
9189;BME280;34313;50.780;6.084;2023-07-31T11:10:40;98850.53;;;20.92;87.42
9189;BME280;34313;50.780;6.084;2023-07-31T11:13:06;98854.88;;;21.32;86.32
9189;BME280;34313;50.780;6.084;2023-07-31T11:15:31;98857.09;;;21.21;86.67
9189;BME280;34313;50.780;6.084;2023-07-31T11:17:57;98849.31;;;21.03;87.40
9189;BME280;34313;50.780;6.084;2023-07-31T11:20:25;98851.19;;;20.86;87.89
9189;BME280;34313;50.780;6.084;2023-07-31T11:22:50;98864.47;;;20.63;89.00
9189;BME280;34313;50.780;6.084;2023-07-31T11:25:16;98848.22;;;20.72;88.81
9189;BME280;34313;50.780;6.084;2023-07-31T11:27:41;98848.56;;;20.77;88.24
9189;BME280;34313;50.780;6.084;2023-07-31T11:30:09;98850.59;;;21.15;86.38
9189;BME280;34313;50.780;6.084;2023-07-31T11:32:36;98839.63;;;21.33;85.02
9189;BME280;34313;50.780;6.084;2023-07-31T11:35:02;98837.91;;;21.40;83.32
9189;BME280;34313;50.780;6.084;2023-07-31T11:37:42;98846.13;;;21.78;81.76
9189;BME280;34313;50.780;6.084;2023-07-31T11:40:08;98843.31;;;21.71;81.60
9189;BME280;34313;50.780;6.084;2023-07-31T11:42:34;98838.56;;;21.42;82.44
9189;BME280;34313;50.780;6.084;2023-07-31T11:45:02;98836.19;;;21.56;82.50
9189;BME280;34313;50.780;6.084;2023-07-31T11:47:28;98835.06;;;21.42;82.67
9189;BME280;34313;50.780;6.084;2023-07-31T11:49:53;98831.34;;;21.11;83.80
9189;BME280;34313;50.780;6.084;2023-07-31T11:52:18;98823.28;;;21.20;83.57
9189;BME280;34313;50.780;6.084;2023-07-31T11:54:48;98831.53;;;21.10;84.19
9189;BME280;34313;50.780;6.084;2023-07-31T11:57:14;98836.53;;;20.65;86.00
9189;BME280;34313;50.780;6.084;2023-07-31T11:59:39;98833.00;;;20.56;87.57
9189;BME280;34313;50.780;6.084;2023-07-31T12:02:05;98834.84;;;20.39;88.74
9189;BME280;34313;50.780;6.084;2023-07-31T12:04:31;98845.38;;;20.33;89.67
9189;BME280;34313;50.780;6.084;2023-07-31T12:06:56;98834.34;;;20.28;89.61
9189;BME280;34313;50.780;6.084;2023-07-31T12:09:22;98837.03;;;20.36;89.64
9189;BME280;34313;50.780;6.084;2023-07-31T12:11:47;98825.66;;;20.26;89.57
9189;BME280;34313;50.780;6.084;2023-07-31T12:14:26;98827.97;;;20.37;89.66
9189;BME280;34313;50.780;6.084;2023-07-31T12:16:59;98824.50;;;20.12;89.18
9189;BME280;34313;50.780;6.084;2023-07-31T12:19:25;98819.16;;;20.20;90.21
9189;BME280;34313;50.780;6.084;2023-07-31T12:21:58;98809.41;;;20.52;88.31
9189;BME280;34313;50.780;6.084;2023-07-31T12:24:26;98796.09;;;20.91;86.34
9189;BME280;34313;50.780;6.084;2023-07-31T12:26:51;98807.34;;;21.58;82.27
9189;BME280;34313;50.780;6.084;2023-07-31T12:29:17;98797.31;;;21.83;80.29
9189;BME280;34313;50.780;6.084;2023-07-31T12:31:43;98797.72;;;21.95;79.25
9189;BME280;34313;50.780;6.084;2023-07-31T12:34:20;98802.59;;;21.68;80.03
9189;BME280;34313;50.780;6.084;2023-07-31T12:36:46;98812.38;;;21.61;80.46
9189;BME280;34313;50.780;6.084;2023-07-31T12:39:12;98815.81;;;21.38;81.95
9189;BME280;34313;50.780;6.084;2023-07-31T12:41:37;98811.13;;;21.40;81.96
9189;BME280;34313;50.780;6.084;2023-07-31T12:44:03;98805.16;;;21.61;80.75
9189;BME280;34313;50.780;6.084;2023-07-31T12:46:28;98795.28;;;22.23;78.47
9189;BME280;34313;50.780;6.084;2023-07-31T12:48:54;98802.31;;;22.32;75.98
9189;BME280;34313;50.780;6.084;2023-07-31T12:51:19;98769.81;;;22.72;74.27
9189;BME280;34313;50.780;6.084;2023-07-31T12:53:46;98745.41;;;23.03;72.63
9189;BME280;34313;50.780;6.084;2023-07-31T12:56:11;98719.53;;;23.53;70.09
9189;BME280;34313;50.780;6.084;2023-07-31T12:58:36;98701.53;;;23.54;69.13
9189;BME280;34313;50.780;6.084;2023-07-31T13:01:01;98689.34;;;23.79;68.25
9189;BME280;34313;50.780;6.084;2023-07-31T13:03:27;98690.25;;;24.15;66.60
9189;BME280;34313;50.780;6.084;2023-07-31T13:05:52;98699.34;;;24.14;66.25
9189;BME280;34313;50.780;6.084;2023-07-31T13:08:18;98698.69;;;24.40;65.48